sensor_id;sensor_type;location;lat;lon;timestamp;temperature;humidity
939;DHT22;456;53.584;9.968;2023-04-12T00:02:24;15.90;25.80
939;DHT22;456;53.584;9.968;2023-04-12T00:04:51;15.90;25.80
939;DHT22;456;53.584;9.968;2023-04-12T00:07:21;15.90;25.60
939;DHT22;456;53.584;9.968;2023-04-12T00:09:47;15.90;25.70
939;DHT22;456;53.584;9.968;2023-04-12T00:12:13;15.90;25.70
939;DHT22;456;53.584;9.968;2023-04-12T00:14:38;15.90;25.70
939;DHT22;456;53.584;9.968;2023-04-12T00:17:04;15.90;25.60
939;DHT22;456;53.584;9.968;2023-04-12T00:19:29;15.80;25.50
939;DHT22;456;53.584;9.968;2023-04-12T00:21:55;15.90;25.50
939;DHT22;456;53.584;9.968;2023-04-12T00:24:22;15.80;25.50
939;DHT22;456;53.584;9.968;2023-04-12T00:26:47;15.80;25.40
939;DHT22;456;53.584;9.968;2023-04-12T00:29:15;15.80;25.50
939;DHT22;456;53.584;9.968;2023-04-12T00:31:40;15.80;25.40
939;DHT22;456;53.584;9.968;2023-04-12T00:34:06;15.80;25.50
939;DHT22;456;53.584;9.968;2023-04-12T00:36:31;15.80;25.40
939;DHT22;456;53.584;9.968;2023-04-12T00:38:57;15.90;25.40
939;DHT22;456;53.584;9.968;2023-04-12T00:41:22;15.80;25.40
939;DHT22;456;53.584;9.968;2023-04-12T00:43:49;15.80;25.40
939;DHT22;456;53.584;9.968;2023-04-12T00:46:16;15.80;25.20
939;DHT22;456;53.584;9.968;2023-04-12T00:48:42;15.80;25.30
939;DHT22;456;53.584;9.968;2023-04-12T00:51:09;15.80;25.20
939;DHT22;456;53.584;9.968;2023-04-12T00:53:35;15.80;25.20
939;DHT22;456;53.584;9.968;2023-04-12T00:56:02;15.80;25.10
939;DHT22;456;53.584;9.968;2023-04-12T00:58:28;15.80;25.10
939;DHT22;456;53.584;9.968;2023-04-12T01:00:54;15.80;25.10
939;DHT22;456;53.584;9.968;2023-04-12T01:03:21;15.80;25.20
939;DHT22;456;53.584;9.968;2023-04-12T01:06:12;15.80;25.10
939;DHT22;456;53.584;9.968;2023-04-12T01:08:52;15.80;25.10
939;DHT22;456;53.584;9.968;2023-04-12T01:11:34;15.80;25.00
939;DHT22;456;53.584;9.968;2023-04-12T01:14:10;15.80;25.50
939;DHT22;456;53.584;9.968;2023-04-12T01:16:49;15.80;25.10
939;DHT22;456;53.584;9.968;2023-04-12T01:27:59;15.80;24.90
939;DHT22;456;53.584;9.968;2023-04-12T01:30:28;15.80;25.00
939;DHT22;456;53.584;9.968;2023-04-12T01:32:56;15.80;25.00
939;DHT22;456;53.584;9.968;2023-04-12T01:35:27;15.80;24.90
939;DHT22;456;53.584;9.968;2023-04-12T01:37:53;15.80;25.00
939;DHT22;456;53.584;9.968;2023-04-12T01:40:19;15.80;24.90
939;DHT22;456;53.584;9.968;2023-04-12T01:42:45;15.80;25.10
939;DHT22;456;53.584;9.968;2023-04-12T01:45:10;15.80;25.00
939;DHT22;456;53.584;9.968;2023-04-12T01:47:37;15.80;24.90
939;DHT22;456;53.584;9.968;2023-04-12T01:50:21;15.80;25.00
939;DHT22;456;53.584;9.968;2023-04-12T01:53:12;15.80;24.90
939;DHT22;456;53.584;9.968;2023-04-12T01:55:40;15.70;24.90
939;DHT22;456;53.584;9.968;2023-04-12T01:58:10;15.70;24.70
939;DHT22;456;53.584;9.968;2023-04-12T02:00:36;15.70;24.90
939;DHT22;456;53.584;9.968;2023-04-12T02:03:04;15.70;25.30
939;DHT22;456;53.584;9.968;2023-04-12T02:05:31;15.80;24.90
939;DHT22;456;53.584;9.968;2023-04-12T02:07:58;15.80;24.90
939;DHT22;456;53.584;9.968;2023-04-12T02:10:28;15.80;24.80
939;DHT22;456;53.584;9.968;2023-04-12T02:12:57;15.70;24.80
939;DHT22;456;53.584;9.968;2023-04-12T02:15:23;15.70;24.90
939;DHT22;456;53.584;9.968;2023-04-12T02:17:50;15.70;24.80
939;DHT22;456;53.584;9.968;2023-04-12T02:20:18;15.70;24.80
939;DHT22;456;53.584;9.968;2023-04-12T02:22:44;15.70;24.70
939;DHT22;456;53.584;9.968;2023-04-12T02:25:10;15.70;24.70
939;DHT22;456;53.584;9.968;2023-04-12T02:27:36;15.70;24.70
939;DHT22;456;53.584;9.968;2023-04-12T02:30:02;15.70;24.70
939;DHT22;456;53.584;9.968;2023-04-12T02:32:28;15.70;24.70
939;DHT22;456;53.584;9.968;2023-04-12T02:34:55;15.70;24.70
939;DHT22;456;53.584;9.968;2023-04-12T02:37:24;15.70;24.70
939;DHT22;456;53.584;9.968;2023-04-12T02:39:52;15.70;24.60
939;DHT22;456;53.584;9.968;2023-04-12T02:42:21;15.70;24.60
939;DHT22;456;53.584;9.968;2023-04-12T02:44:47;15.80;24.70
939;DHT22;456;53.584;9.968;2023-04-12T02:47:12;15.70;25.00
939;DHT22;456;53.584;9.968;2023-04-12T02:49:39;15.80;25.80
939;DHT22;456;53.584;9.968;2023-04-12T02:52:04;15.80;26.20
939;DHT22;456;53.584;9.968;2023-04-12T02:54:30;15.90;26.10
939;DHT22;456;53.584;9.968;2023-04-12T02:56:55;16.00;26.10
939;DHT22;456;53.584;9.968;2023-04-12T02:59:21;16.00;26.10
939;DHT22;456;53.584;9.968;2023-04-12T03:01:47;16.10;26.10
939;DHT22;456;53.584;9.968;2023-04-12T03:04:14;16.10;26.00
939;DHT22;456;53.584;9.968;2023-04-12T03:06:40;16.20;26.10
939;DHT22;456;53.584;9.968;2023-04-12T03:09:17;16.20;26.00
939;DHT22;456;53.584;9.968;2023-04-12T03:11:43;16.20;26.00
939;DHT22;456;53.584;9.968;2023-04-12T03:14:08;16.20;26.00
939;DHT22;456;53.584;9.968;2023-04-12T03:16:34;16.20;26.00
939;DHT22;456;53.584;9.968;2023-04-12T03:19:00;16.30;26.10
939;DHT22;456;53.584;9.968;2023-04-12T03:21:25;16.30;26.10
939;DHT22;456;53.584;9.968;2023-04-12T03:23:52;16.30;26.10
939;DHT22;456;53.584;9.968;2023-04-12T03:26:18;16.30;26.10
939;DHT22;456;53.584;9.968;2023-04-12T03:28:45;16.30;26.10
939;DHT22;456;53.584;9.968;2023-04-12T03:31:11;16.30;26.10
939;DHT22;456;53.584;9.968;2023-04-12T03:33:37;16.30;26.10
939;DHT22;456;53.584;9.968;2023-04-12T03:36:04;16.30;26.10
939;DHT22;456;53.584;9.968;2023-04-12T03:38:29;16.30;26.10
939;DHT22;456;53.584;9.968;2023-04-12T03:40:55;16.30;26.10
939;DHT22;456;53.584;9.968;2023-04-12T03:43:20;16.30;26.10
939;DHT22;456;53.584;9.968;2023-04-12T03:45:46;16.30;26.10
939;DHT22;456;53.584;9.968;2023-04-12T03:48:12;16.30;26.00
939;DHT22;456;53.584;9.968;2023-04-12T03:50:39;16.30;26.00
939;DHT22;456;53.584;9.968;2023-04-12T03:53:10;16.30;26.10
939;DHT22;456;53.584;9.968;2023-04-12T03:55:35;16.30;26.10
939;DHT22;456;53.584;9.968;2023-04-12T03:58:02;16.30;26.00
939;DHT22;456;53.584;9.968;2023-04-12T04:00:29;16.20;26.00
939;DHT22;456;53.584;9.968;2023-04-12T04:02:56;16.20;25.90
939;DHT22;456;53.584;9.968;2023-04-12T04:05:28;16.20;25.90
939;DHT22;456;53.584;9.968;2023-04-12T04:07:55;16.20;25.80
939;DHT22;456;53.584;9.968;2023-04-12T04:10:25;16.20;25.80
939;DHT22;456;53.584;9.968;2023-04-12T04:12:51;16.20;25.80
939;DHT22;456;53.584;9.968;2023-04-12T04:15:17;16.20;25.80
939;DHT22;456;53.584;9.968;2023-04-12T04:17:43;16.30;25.90
939;DHT22;456;53.584;9.968;2023-04-12T04:20:09;16.20;26.00
939;DHT22;456;53.584;9.968;2023-04-12T04:22:37;16.30;25.90
939;DHT22;456;53.584;9.968;2023-04-12T04:25:03;16.30;25.90
939;DHT22;456;53.584;9.968;2023-04-12T04:27:30;16.30;25.80
939;DHT22;456;53.584;9.968;2023-04-12T04:29:59;16.30;25.90
939;DHT22;456;53.584;9.968;2023-04-12T04:32:27;16.30;25.90
939;DHT22;456;53.584;9.968;2023-04-12T04:34:55;16.30;26.00
939;DHT22;456;53.584;9.968;2023-04-12T04:37:27;16.30;25.90
939;DHT22;456;53.584;9.968;2023-04-12T04:39:54;16.30;26.00
939;DHT22;456;53.584;9.968;2023-04-12T04:42:20;16.40;26.10
939;DHT22;456;53.584;9.968;2023-04-12T04:44:47;16.40;26.10
939;DHT22;456;53.584;9.968;2023-04-12T04:47:16;16.40;26.00
939;DHT22;456;53.584;9.968;2023-04-12T04:49:43;16.40;26.10
939;DHT22;456;53.584;9.968;2023-04-12T04:52:09;16.40;26.00
939;DHT22;456;53.584;9.968;2023-04-12T04:54:34;16.40;26.00
939;DHT22;456;53.584;9.968;2023-04-12T04:57:00;16.50;26.00
939;DHT22;456;53.584;9.968;2023-04-12T04:59:26;16.40;25.90
939;DHT22;456;53.584;9.968;2023-04-12T05:01:52;16.50;26.60
939;DHT22;456;53.584;9.968;2023-04-12T05:04:17;16.50;26.00
939;DHT22;456;53.584;9.968;2023-04-12T05:06:44;16.50;26.00
939;DHT22;456;53.584;9.968;2023-04-12T05:09:10;16.40;25.90
939;DHT22;456;53.584;9.968;2023-04-12T05:11:35;16.40;25.90
939;DHT22;456;53.584;9.968;2023-04-12T05:14:01;16.50;26.00
939;DHT22;456;53.584;9.968;2023-04-12T05:16:27;16.40;25.90
939;DHT22;456;53.584;9.968;2023-04-12T05:18:52;16.40;25.90
939;DHT22;456;53.584;9.968;2023-04-12T05:21:18;16.50;26.00
939;DHT22;456;53.584;9.968;2023-04-12T05:23:45;16.50;26.00
939;DHT22;456;53.584;9.968;2023-04-12T05:26:11;16.50;26.00
939;DHT22;456;53.584;9.968;2023-04-12T05:28:37;16.50;26.10
939;DHT22;456;53.584;9.968;2023-04-12T05:31:03;16.40;26.00
939;DHT22;456;53.584;9.968;2023-04-12T05:33:28;16.40;26.00
939;DHT22;456;53.584;9.968;2023-04-12T05:35:56;16.40;26.00
939;DHT22;456;53.584;9.968;2023-04-12T05:38:21;16.40;26.00
939;DHT22;456;53.584;9.968;2023-04-12T05:40:47;16.40;26.00
939;DHT22;456;53.584;9.968;2023-04-12T05:43:14;16.40;26.00
939;DHT22;456;53.584;9.968;2023-04-12T05:45:40;16.40;26.00
939;DHT22;456;53.584;9.968;2023-04-12T05:48:06;16.40;26.00
939;DHT22;456;53.584;9.968;2023-04-12T05:50:32;16.40;26.00
939;DHT22;456;53.584;9.968;2023-04-12T05:53:00;16.40;25.90
939;DHT22;456;53.584;9.968;2023-04-12T05:55:27;16.40;26.00
939;DHT22;456;53.584;9.968;2023-04-12T05:57:52;16.40;26.10
939;DHT22;456;53.584;9.968;2023-04-12T06:00:19;16.40;26.10
939;DHT22;456;53.584;9.968;2023-04-12T06:02:47;16.40;26.00
939;DHT22;456;53.584;9.968;2023-04-12T06:05:14;16.40;26.10
939;DHT22;456;53.584;9.968;2023-04-12T06:07:42;16.40;26.00
939;DHT22;456;53.584;9.968;2023-04-12T06:10:11;16.40;26.60
939;DHT22;456;53.584;9.968;2023-04-12T06:12:37;16.40;26.10
939;DHT22;456;53.584;9.968;2023-04-12T06:15:03;16.40;26.00
939;DHT22;456;53.584;9.968;2023-04-12T06:17:29;16.40;26.00
939;DHT22;456;53.584;9.968;2023-04-12T06:19:55;16.40;26.10
939;DHT22;456;53.584;9.968;2023-04-12T06:22:20;16.40;26.00
939;DHT22;456;53.584;9.968;2023-04-12T06:24:46;16.40;26.00
939;DHT22;456;53.584;9.968;2023-04-12T06:27:11;16.40;26.10
939;DHT22;456;53.584;9.968;2023-04-12T06:29:37;16.40;26.00
939;DHT22;456;53.584;9.968;2023-04-12T06:32:03;16.40;26.00
939;DHT22;456;53.584;9.968;2023-04-12T06:34:28;16.40;26.00
939;DHT22;456;53.584;9.968;2023-04-12T06:36:54;16.30;25.80
939;DHT22;456;53.584;9.968;2023-04-12T06:39:21;16.30;25.80
939;DHT22;456;53.584;9.968;2023-04-12T06:41:47;16.30;25.70
939;DHT22;456;53.584;9.968;2023-04-12T06:44:15;16.30;25.80
939;DHT22;456;53.584;9.968;2023-04-12T06:46:40;16.30;25.80
939;DHT22;456;53.584;9.968;2023-04-12T06:49:06;16.30;25.90
939;DHT22;456;53.584;9.968;2023-04-12T06:51:32;16.30;25.80
939;DHT22;456;53.584;9.968;2023-04-12T06:53:58;16.30;25.70
939;DHT22;456;53.584;9.968;2023-04-12T06:56:24;16.30;25.50
939;DHT22;456;53.584;9.968;2023-04-12T06:58:50;16.30;25.40
939;DHT22;456;53.584;9.968;2023-04-12T07:01:15;16.30;25.40
939;DHT22;456;53.584;9.968;2023-04-12T07:03:41;16.30;25.40
939;DHT22;456;53.584;9.968;2023-04-12T07:06:07;16.30;25.40
939;DHT22;456;53.584;9.968;2023-04-12T07:08:34;16.30;25.30
939;DHT22;456;53.584;9.968;2023-04-12T07:11:00;16.30;25.40
939;DHT22;456;53.584;9.968;2023-04-12T07:13:26;16.30;25.60
939;DHT22;456;53.584;9.968;2023-04-12T07:15:51;16.30;25.70
939;DHT22;456;53.584;9.968;2023-04-12T07:18:18;16.30;25.80
939;DHT22;456;53.584;9.968;2023-04-12T07:20:45;16.30;25.80
939;DHT22;456;53.584;9.968;2023-04-12T07:23:13;16.30;25.70
939;DHT22;456;53.584;9.968;2023-04-12T07:25:38;16.30;25.60
939;DHT22;456;53.584;9.968;2023-04-12T07:28:04;16.30;25.70
939;DHT22;456;53.584;9.968;2023-04-12T07:30:30;16.30;25.60
939;DHT22;456;53.584;9.968;2023-04-12T07:32:56;16.30;25.70
939;DHT22;456;53.584;9.968;2023-04-12T07:35:21;16.30;25.40
939;DHT22;456;53.584;9.968;2023-04-12T07:37:47;16.30;25.50
939;DHT22;456;53.584;9.968;2023-04-12T07:40:13;16.30;25.40
939;DHT22;456;53.584;9.968;2023-04-12T07:42:38;16.30;25.30
939;DHT22;456;53.584;9.968;2023-04-12T07:45:04;16.30;25.30
939;DHT22;456;53.584;9.968;2023-04-12T07:47:30;16.30;25.30
939;DHT22;456;53.584;9.968;2023-04-12T07:49:57;16.20;25.10
939;DHT22;456;53.584;9.968;2023-04-12T07:52:23;16.20;25.00
939;DHT22;456;53.584;9.968;2023-04-12T07:54:49;16.30;24.90
939;DHT22;456;53.584;9.968;2023-04-12T07:57:14;16.20;24.90
939;DHT22;456;53.584;9.968;2023-04-12T07:59:40;16.20;24.80
939;DHT22;456;53.584;9.968;2023-04-12T08:02:06;16.20;24.80
939;DHT22;456;53.584;9.968;2023-04-12T08:04:31;16.20;25.00
939;DHT22;456;53.584;9.968;2023-04-12T08:06:57;16.20;25.00
939;DHT22;456;53.584;9.968;2023-04-12T08:09:23;16.20;25.00
939;DHT22;456;53.584;9.968;2023-04-12T08:11:49;16.20;24.80
939;DHT22;456;53.584;9.968;2023-04-12T08:14:15;16.20;24.70
939;DHT22;456;53.584;9.968;2023-04-12T08:16:40;16.20;24.70
939;DHT22;456;53.584;9.968;2023-04-12T08:19:06;16.20;24.70
939;DHT22;456;53.584;9.968;2023-04-12T08:21:32;16.20;24.60
939;DHT22;456;53.584;9.968;2023-04-12T08:23:58;16.20;24.60
939;DHT22;456;53.584;9.968;2023-04-12T08:26:24;16.20;24.60
939;DHT22;456;53.584;9.968;2023-04-12T08:28:51;16.20;24.60
939;DHT22;456;53.584;9.968;2023-04-12T08:31:17;16.20;24.60
939;DHT22;456;53.584;9.968;2023-04-12T08:33:43;16.20;25.10
939;DHT22;456;53.584;9.968;2023-04-12T08:36:09;16.20;24.60
939;DHT22;456;53.584;9.968;2023-04-12T08:38:37;16.20;24.60
939;DHT22;456;53.584;9.968;2023-04-12T08:41:06;16.10;24.50
939;DHT22;456;53.584;9.968;2023-04-12T08:43:33;16.10;24.60
939;DHT22;456;53.584;9.968;2023-04-12T08:46:00;16.10;24.60
939;DHT22;456;53.584;9.968;2023-04-12T08:48:27;16.10;24.60
939;DHT22;456;53.584;9.968;2023-04-12T08:50:55;16.10;24.70
939;DHT22;456;53.584;9.968;2023-04-12T08:53:21;16.10;24.70
939;DHT22;456;53.584;9.968;2023-04-12T08:55:46;16.10;24.70
939;DHT22;456;53.584;9.968;2023-04-12T08:58:14;16.10;24.70
939;DHT22;456;53.584;9.968;2023-04-12T09:00:40;16.10;24.70
939;DHT22;456;53.584;9.968;2023-04-12T09:03:06;16.10;24.80
939;DHT22;456;53.584;9.968;2023-04-12T09:05:32;16.10;24.80
939;DHT22;456;53.584;9.968;2023-04-12T09:07:58;16.10;24.80
939;DHT22;456;53.584;9.968;2023-04-12T09:10:37;16.10;24.80
939;DHT22;456;53.584;9.968;2023-04-12T09:13:03;16.10;24.80
939;DHT22;456;53.584;9.968;2023-04-12T09:15:29;16.10;24.80
939;DHT22;456;53.584;9.968;2023-04-12T09:18:21;16.10;24.80
939;DHT22;456;53.584;9.968;2023-04-12T09:20:47;16.10;24.70
939;DHT22;456;53.584;9.968;2023-04-12T09:23:22;16.10;24.80
939;DHT22;456;53.584;9.968;2023-04-12T09:25:51;16.10;24.80
939;DHT22;456;53.584;9.968;2023-04-12T09:28:19;16.10;24.80
939;DHT22;456;53.584;9.968;2023-04-12T09:30:46;16.10;25.20
939;DHT22;456;53.584;9.968;2023-04-12T09:33:16;16.00;25.10
939;DHT22;456;53.584;9.968;2023-04-12T09:35:42;16.00;25.00
939;DHT22;456;53.584;9.968;2023-04-12T09:38:09;16.00;24.90
939;DHT22;456;53.584;9.968;2023-04-12T09:40:35;16.10;25.00
939;DHT22;456;53.584;9.968;2023-04-12T09:43:02;16.10;25.00
939;DHT22;456;53.584;9.968;2023-04-12T09:45:29;16.00;24.90
939;DHT22;456;53.584;9.968;2023-04-12T09:47:56;16.00;24.90
939;DHT22;456;53.584;9.968;2023-04-12T09:50:27;16.00;25.00
939;DHT22;456;53.584;9.968;2023-04-12T09:52:56;16.10;25.00
939;DHT22;456;53.584;9.968;2023-04-12T09:55:24;16.00;25.00
939;DHT22;456;53.584;9.968;2023-04-12T09:57:51;16.00;25.00
939;DHT22;456;53.584;9.968;2023-04-12T10:00:17;16.00;25.00
939;DHT22;456;53.584;9.968;2023-04-12T10:02:45;16.00;25.00
939;DHT22;456;53.584;9.968;2023-04-12T10:05:13;16.00;24.90
939;DHT22;456;53.584;9.968;2023-04-12T10:07:40;16.00;25.00
939;DHT22;456;53.584;9.968;2023-04-12T10:10:11;16.00;25.00
939;DHT22;456;53.584;9.968;2023-04-12T10:12:42;16.00;25.00
939;DHT22;456;53.584;9.968;2023-04-12T10:15:09;16.00;25.00
939;DHT22;456;53.584;9.968;2023-04-12T10:17:44;16.00;25.10
939;DHT22;456;53.584;9.968;2023-04-12T10:20:12;16.00;25.10
939;DHT22;456;53.584;9.968;2023-04-12T10:22:42;16.00;25.10
939;DHT22;456;53.584;9.968;2023-04-12T10:25:10;16.00;25.20
939;DHT22;456;53.584;9.968;2023-04-12T10:27:38;16.00;25.10
939;DHT22;456;53.584;9.968;2023-04-12T10:30:21;16.00;25.20
939;DHT22;456;53.584;9.968;2023-04-12T10:33:33;16.00;25.30
939;DHT22;456;53.584;9.968;2023-04-12T10:35:52;16.00;25.30
939;DHT22;456;53.584;9.968;2023-04-12T10:38:19;16.00;25.30
939;DHT22;456;53.584;9.968;2023-04-12T10:41:19;16.00;25.30
939;DHT22;456;53.584;9.968;2023-04-12T10:43:50;16.00;25.40
939;DHT22;456;53.584;9.968;2023-04-12T10:46:51;16.00;25.40
939;DHT22;456;53.584;9.968;2023-04-12T10:49:17;16.00;25.50
939;DHT22;456;53.584;9.968;2023-04-12T10:54:32;16.00;25.60
939;DHT22;456;53.584;9.968;2023-04-12T10:57:00;16.00;25.60
939;DHT22;456;53.584;9.968;2023-04-12T10:59:50;15.90;25.50
939;DHT22;456;53.584;9.968;2023-04-12T11:02:16;16.00;25.60
939;DHT22;456;53.584;9.968;2023-04-12T11:05:04;15.90;25.60
939;DHT22;456;53.584;9.968;2023-04-12T11:07:39;15.90;25.70
939;DHT22;456;53.584;9.968;2023-04-12T11:10:16;15.90;25.70
939;DHT22;456;53.584;9.968;2023-04-12T11:12:51;16.00;25.80
939;DHT22;456;53.584;9.968;2023-04-12T11:15:25;16.00;25.80
939;DHT22;456;53.584;9.968;2023-04-12T11:17:55;16.00;25.90
939;DHT22;456;53.584;9.968;2023-04-12T11:20:21;15.90;25.90
939;DHT22;456;53.584;9.968;2023-04-12T11:22:48;15.90;26.40
939;DHT22;456;53.584;9.968;2023-04-12T11:25:16;15.90;25.90
939;DHT22;456;53.584;9.968;2023-04-12T11:27:51;15.90;26.00
939;DHT22;456;53.584;9.968;2023-04-12T11:30:17;15.90;26.00
939;DHT22;456;53.584;9.968;2023-04-12T11:32:44;15.90;26.00
939;DHT22;456;53.584;9.968;2023-04-12T11:35:11;15.90;26.00
939;DHT22;456;53.584;9.968;2023-04-12T11:37:38;15.90;26.00
939;DHT22;456;53.584;9.968;2023-04-12T11:40:05;15.90;26.00
939;DHT22;456;53.584;9.968;2023-04-12T11:42:31;15.90;26.10
939;DHT22;456;53.584;9.968;2023-04-12T11:44:57;15.90;26.10
939;DHT22;456;53.584;9.968;2023-04-12T11:47:23;15.90;26.10
939;DHT22;456;53.584;9.968;2023-04-12T11:49:54;15.90;26.10
939;DHT22;456;53.584;9.968;2023-04-12T11:52:21;15.90;26.10
939;DHT22;456;53.584;9.968;2023-04-12T11:54:49;15.90;26.20
939;DHT22;456;53.584;9.968;2023-04-12T11:57:17;15.90;26.20
939;DHT22;456;53.584;9.968;2023-04-12T11:59:44;16.00;26.30
939;DHT22;456;53.584;9.968;2023-04-12T12:02:11;16.00;26.30
939;DHT22;456;53.584;9.968;2023-04-12T12:04:39;15.90;26.30
939;DHT22;456;53.584;9.968;2023-04-12T12:07:05;15.90;26.30
939;DHT22;456;53.584;9.968;2023-04-12T12:09:31;15.90;26.30
939;DHT22;456;53.584;9.968;2023-04-12T12:11:57;16.00;26.40
939;DHT22;456;53.584;9.968;2023-04-12T12:14:23;16.00;26.50
939;DHT22;456;53.584;9.968;2023-04-12T12:16:55;15.90;26.40
939;DHT22;456;53.584;9.968;2023-04-12T12:19:37;15.90;26.50
939;DHT22;456;53.584;9.968;2023-04-12T12:22:09;15.90;26.50
939;DHT22;456;53.584;9.968;2023-04-12T12:24:34;15.90;26.50
939;DHT22;456;53.584;9.968;2023-04-12T12:27:01;15.90;26.60
939;DHT22;456;53.584;9.968;2023-04-12T12:29:33;15.90;26.60
939;DHT22;456;53.584;9.968;2023-04-12T12:32:00;15.90;26.50
939;DHT22;456;53.584;9.968;2023-04-12T12:34:31;15.90;26.50
939;DHT22;456;53.584;9.968;2023-04-12T12:36:56;15.90;26.50
939;DHT22;456;53.584;9.968;2023-04-12T12:39:22;15.90;26.50
939;DHT22;456;53.584;9.968;2023-04-12T12:41:52;15.90;26.60
939;DHT22;456;53.584;9.968;2023-04-12T12:44:20;15.90;26.50
939;DHT22;456;53.584;9.968;2023-04-12T12:46:46;15.90;26.50
939;DHT22;456;53.584;9.968;2023-04-12T12:49:12;15.90;26.50
939;DHT22;456;53.584;9.968;2023-04-12T12:51:37;15.90;26.60
939;DHT22;456;53.584;9.968;2023-04-12T12:54:04;15.90;26.50
939;DHT22;456;53.584;9.968;2023-04-12T12:56:29;15.90;26.60
939;DHT22;456;53.584;9.968;2023-04-12T12:58:55;15.90;26.60
939;DHT22;456;53.584;9.968;2023-04-12T13:01:21;15.90;26.60
939;DHT22;456;53.584;9.968;2023-04-12T13:03:46;15.90;26.50
939;DHT22;456;53.584;9.968;2023-04-12T13:06:12;15.90;26.70
939;DHT22;456;53.584;9.968;2023-04-12T13:08:37;15.90;26.70
939;DHT22;456;53.584;9.968;2023-04-12T13:11:03;15.90;26.70
939;DHT22;456;53.584;9.968;2023-04-12T13:13:28;15.90;26.70
939;DHT22;456;53.584;9.968;2023-04-12T13:15:54;15.90;26.80
939;DHT22;456;53.584;9.968;2023-04-12T13:18:20;15.90;26.80
939;DHT22;456;53.584;9.968;2023-04-12T13:20:45;15.90;26.80
939;DHT22;456;53.584;9.968;2023-04-12T13:23:11;15.90;26.90
939;DHT22;456;53.584;9.968;2023-04-12T13:25:37;15.90;26.80
939;DHT22;456;53.584;9.968;2023-04-12T13:28:03;15.90;26.70
939;DHT22;456;53.584;9.968;2023-04-12T13:30:29;16.00;26.60
939;DHT22;456;53.584;9.968;2023-04-12T13:32:54;16.00;26.60
939;DHT22;456;53.584;9.968;2023-04-12T13:35:20;16.00;26.60
939;DHT22;456;53.584;9.968;2023-04-12T13:37:45;16.10;26.70
939;DHT22;456;53.584;9.968;2023-04-12T13:40:12;16.10;26.70
939;DHT22;456;53.584;9.968;2023-04-12T13:42:38;16.20;26.70
939;DHT22;456;53.584;9.968;2023-04-12T13:45:04;16.20;26.70
939;DHT22;456;53.584;9.968;2023-04-12T13:47:31;16.20;26.70
939;DHT22;456;53.584;9.968;2023-04-12T13:50:00;16.20;26.80
939;DHT22;456;53.584;9.968;2023-04-12T13:52:25;16.20;26.70
939;DHT22;456;53.584;9.968;2023-04-12T13:54:51;16.30;26.80
939;DHT22;456;53.584;9.968;2023-04-12T13:57:17;16.20;26.80
939;DHT22;456;53.584;9.968;2023-04-12T13:59:42;16.20;26.70
939;DHT22;456;53.584;9.968;2023-04-12T14:02:08;16.20;27.30
939;DHT22;456;53.584;9.968;2023-04-12T14:04:33;16.20;26.70
939;DHT22;456;53.584;9.968;2023-04-12T14:06:59;16.20;26.80
939;DHT22;456;53.584;9.968;2023-04-12T14:09:29;16.30;26.80
939;DHT22;456;53.584;9.968;2023-04-12T14:11:57;16.30;26.80
939;DHT22;456;53.584;9.968;2023-04-12T14:14:24;16.30;26.80
939;DHT22;456;53.584;9.968;2023-04-12T14:16:51;16.30;26.80
939;DHT22;456;53.584;9.968;2023-04-12T14:19:18;16.30;26.80
939;DHT22;456;53.584;9.968;2023-04-12T14:21:46;16.30;26.80
939;DHT22;456;53.584;9.968;2023-04-12T14:24:12;16.30;26.90
939;DHT22;456;53.584;9.968;2023-04-12T14:26:37;16.30;26.80
939;DHT22;456;53.584;9.968;2023-04-12T14:29:04;16.30;26.90
939;DHT22;456;53.584;9.968;2023-04-12T14:31:30;16.30;26.90
939;DHT22;456;53.584;9.968;2023-04-12T14:33:56;16.30;26.90
939;DHT22;456;53.584;9.968;2023-04-12T14:36:22;16.30;27.00
939;DHT22;456;53.584;9.968;2023-04-12T14:38:47;16.30;26.90
939;DHT22;456;53.584;9.968;2023-04-12T14:41:14;16.30;27.00
939;DHT22;456;53.584;9.968;2023-04-12T14:43:40;16.30;27.00
939;DHT22;456;53.584;9.968;2023-04-12T14:46:06;16.30;27.00
939;DHT22;456;53.584;9.968;2023-04-12T14:48:31;16.30;27.00
939;DHT22;456;53.584;9.968;2023-04-12T14:50:57;16.30;27.10
939;DHT22;456;53.584;9.968;2023-04-12T14:53:23;16.30;27.20
939;DHT22;456;53.584;9.968;2023-04-12T14:55:48;16.30;27.10
939;DHT22;456;53.584;9.968;2023-04-12T14:58:14;16.30;27.10
939;DHT22;456;53.584;9.968;2023-04-12T15:00:39;16.30;27.10
939;DHT22;456;53.584;9.968;2023-04-12T15:03:06;16.30;27.40
939;DHT22;456;53.584;9.968;2023-04-12T15:05:32;16.30;27.10
939;DHT22;456;53.584;9.968;2023-04-12T15:07:58;16.30;27.10
939;DHT22;456;53.584;9.968;2023-04-12T15:10:24;16.30;27.20
939;DHT22;456;53.584;9.968;2023-04-12T15:12:50;16.30;27.10
939;DHT22;456;53.584;9.968;2023-04-12T15:15:15;16.30;27.20
939;DHT22;456;53.584;9.968;2023-04-12T15:17:41;16.30;27.10
939;DHT22;456;53.584;9.968;2023-04-12T15:20:07;16.40;27.20
939;DHT22;456;53.584;9.968;2023-04-12T15:22:39;16.40;27.20
939;DHT22;456;53.584;9.968;2023-04-12T15:25:05;16.40;27.20
939;DHT22;456;53.584;9.968;2023-04-12T15:27:32;16.40;27.20
939;DHT22;456;53.584;9.968;2023-04-12T15:29:58;16.40;27.20
939;DHT22;456;53.584;9.968;2023-04-12T15:32:25;16.40;27.20
939;DHT22;456;53.584;9.968;2023-04-12T15:34:52;16.40;27.30
939;DHT22;456;53.584;9.968;2023-04-12T15:37:19;16.40;27.30
939;DHT22;456;53.584;9.968;2023-04-12T15:39:45;16.40;27.30
939;DHT22;456;53.584;9.968;2023-04-12T15:42:11;16.40;27.30
939;DHT22;456;53.584;9.968;2023-04-12T15:44:37;16.40;27.30
939;DHT22;456;53.584;9.968;2023-04-12T15:47:02;16.40;27.30
939;DHT22;456;53.584;9.968;2023-04-12T15:49:30;16.40;27.40
939;DHT22;456;53.584;9.968;2023-04-12T15:51:55;16.40;27.40
939;DHT22;456;53.584;9.968;2023-04-12T15:54:22;16.40;27.40
939;DHT22;456;53.584;9.968;2023-04-12T15:56:48;16.40;27.40
939;DHT22;456;53.584;9.968;2023-04-12T15:59:15;16.40;27.40
939;DHT22;456;53.584;9.968;2023-04-12T16:01:43;16.40;27.40
939;DHT22;456;53.584;9.968;2023-04-12T16:04:08;16.40;27.40
939;DHT22;456;53.584;9.968;2023-04-12T16:06:34;16.40;27.40
939;DHT22;456;53.584;9.968;2023-04-12T16:09:00;16.40;27.40
939;DHT22;456;53.584;9.968;2023-04-12T16:11:26;16.40;27.40
939;DHT22;456;53.584;9.968;2023-04-12T16:13:53;16.40;27.40
939;DHT22;456;53.584;9.968;2023-04-12T16:16:20;16.40;27.50
939;DHT22;456;53.584;9.968;2023-04-12T16:18:47;16.40;27.50
939;DHT22;456;53.584;9.968;2023-04-12T16:21:15;16.40;27.50
939;DHT22;456;53.584;9.968;2023-04-12T16:23:42;16.40;27.50
939;DHT22;456;53.584;9.968;2023-04-12T16:26:09;16.40;27.50
939;DHT22;456;53.584;9.968;2023-04-12T16:28:36;16.50;27.50
939;DHT22;456;53.584;9.968;2023-04-12T16:31:03;16.50;27.50
939;DHT22;456;53.584;9.968;2023-04-12T16:33:29;16.40;27.50
939;DHT22;456;53.584;9.968;2023-04-12T16:35:54;16.40;27.50
939;DHT22;456;53.584;9.968;2023-04-12T16:38:20;16.40;27.50
939;DHT22;456;53.584;9.968;2023-04-12T16:40:46;16.40;27.50
939;DHT22;456;53.584;9.968;2023-04-12T16:43:12;16.50;27.50
939;DHT22;456;53.584;9.968;2023-04-12T16:45:37;16.40;27.40
939;DHT22;456;53.584;9.968;2023-04-12T16:48:03;16.40;27.40